Briefing drone pour Saint-marcel-les-valence

Rechercher une autre localisation

Conditions de vol :


Nous sommes le : Mardi 24 mai 2022
Il est 07:08 UTC (09:08 LT)

Lever de soleil : 03:36 UTC (05:36 LT)
Coucher de soleil : 19:38 UTC (21:38 LT)

Météo

L'essentiel des conditions de vol

VIGILANCE MÉTÉO FRANCE - Drôme (26)
Pas de vigilances particulieres
CARTES DES FRONTS
METAR de LFLU
LFLU 240700Z AUTO 03012KT 9999 OVC050 18/08 Q1011

Date d'émission: 24/05/2022
Heure d'émission: 07:00 UTC
Vent: 030° pour 12 KT (22 km/h)
Visibilité horizontale: > 10 km
Plafond :
- Couvert à 5000ft (1524m)
Température: 18 °C
Point de rosée: 8 °C
Humidité: 52%
Pression (QNH): 1011 hPa
Prévision 24h pour Valence (3 km)
Vent : 22° pour 5 KT (17 km/h)
Temperature Maxi: 13 °C
Temperature Min: 13 °C
Humidité : 70%
Condition : Couvert



Warning: count(): Parameter must be an array or an object that implements Countable in /homepages/6/d509196549/htdocs/droneoxygene/briefing.php on line 743
WEBCAM POUR SAINT-MARCEL-LES-VALENCE

Réglementation

Voler en sécurité

CARTES AERONAUTIQUE 1/500.000
CARTES VAC (LFLU)
SUP AIP




Chargement des AIP...
NOTAM (SAINT-MARCEL-LES-VALENCE + Terrain à proximité / FIR )




Chargement des NOTAMS...
CONTACT PREFECTURE 26
Drôme (26) : ddt-satem@drome.gouv.fr


Avertissement : Les données mises à disposition sont indicatives. Oxygène Drone ne pourra être tenu responsable de dégâts causés aux biens et aux personnes.